sensor_id;sensor_type;location;lat;lon;timestamp;temperature;humidity
76102;SHT30;64830;46.910;6.354;2023-03-20T00:02:54;7.23;79.73
76102;SHT30;64830;46.910;6.354;2023-03-20T00:05:22;7.18;79.53
76102;SHT30;64830;46.910;6.354;2023-03-20T00:07:49;7.14;79.60
76102;SHT30;64830;46.910;6.354;2023-03-20T00:10:18;7.14;79.57
76102;SHT30;64830;46.910;6.354;2023-03-20T00:12:46;7.15;79.59
76102;SHT30;64830;46.910;6.354;2023-03-20T00:15:23;7.13;79.27
76102;SHT30;64830;46.910;6.354;2023-03-20T00:17:50;7.13;79.15
76102;SHT30;64830;46.910;6.354;2023-03-20T00:20:16;7.13;79.04
76102;SHT30;64830;46.910;6.354;2023-03-20T00:22:42;7.08;79.02
76102;SHT30;64830;46.910;6.354;2023-03-20T00:25:12;7.07;79.16
76102;SHT30;64830;46.910;6.354;2023-03-20T00:27:38;7.00;79.08
76102;SHT30;64830;46.910;6.354;2023-03-20T00:32:40;6.92;79.36
76102;SHT30;64830;46.910;6.354;2023-03-20T00:35:17;6.82;79.41
76102;SHT30;64830;46.910;6.354;2023-03-20T00:37:42;6.75;79.49
76102;SHT30;64830;46.910;6.354;2023-03-20T00:40:09;6.67;79.80
76102;SHT30;64830;46.910;6.354;2023-03-20T00:42:35;6.62;79.91
76102;SHT30;64830;46.910;6.354;2023-03-20T00:45:01;6.59;79.95
76102;SHT30;64830;46.910;6.354;2023-03-20T00:47:27;6.53;80.04
76102;SHT30;64830;46.910;6.354;2023-03-20T00:49:54;6.53;80.21
76102;SHT30;64830;46.910;6.354;2023-03-20T00:52:20;6.49;79.98
76102;SHT30;64830;46.910;6.354;2023-03-20T00:54:46;6.46;80.03
76102;SHT30;64830;46.910;6.354;2023-03-20T00:57:17;6.49;79.86
76102;SHT30;64830;46.910;6.354;2023-03-20T00:59:59;6.46;79.90
76102;SHT30;64830;46.910;6.354;2023-03-20T01:02:28;6.44;79.89
76102;SHT30;64830;46.910;6.354;2023-03-20T01:04:54;6.44;79.81
76102;SHT30;64830;46.910;6.354;2023-03-20T01:07:19;6.41;79.82
76102;SHT30;64830;46.910;6.354;2023-03-20T01:09:46;6.37;79.83
76102;SHT30;64830;46.910;6.354;2023-03-20T01:12:12;6.37;80.05
76102;SHT30;64830;46.910;6.354;2023-03-20T01:14:38;6.35;80.09
76102;SHT30;64830;46.910;6.354;2023-03-20T01:17:03;6.34;80.23
76102;SHT30;64830;46.910;6.354;2023-03-20T01:19:29;6.37;80.17
76102;SHT30;64830;46.910;6.354;2023-03-20T01:21:54;6.37;80.44
76102;SHT30;64830;46.910;6.354;2023-03-20T01:24:20;6.33;80.35
76102;SHT30;64830;46.910;6.354;2023-03-20T01:26:45;6.28;80.17
76102;SHT30;64830;46.910;6.354;2023-03-20T01:29:25;6.28;80.41
76102;SHT30;64830;46.910;6.354;2023-03-20T01:31:52;6.27;80.51
76102;SHT30;64830;46.910;6.354;2023-03-20T01:34:18;6.24;80.59
76102;SHT30;64830;46.910;6.354;2023-03-20T01:36:52;6.24;80.66
76102;SHT30;64830;46.910;6.354;2023-03-20T01:39:31;6.27;80.71
76102;SHT30;64830;46.910;6.354;2023-03-20T01:41:58;6.24;80.58
76102;SHT30;64830;46.910;6.354;2023-03-20T01:44:31;6.28;80.73
76102;SHT30;64830;46.910;6.354;2023-03-20T01:46:58;6.27;80.77
76102;SHT30;64830;46.910;6.354;2023-03-20T01:51:50;6.24;80.78
76102;SHT30;64830;46.910;6.354;2023-03-20T01:54:23;6.23;80.71
76102;SHT30;64830;46.910;6.354;2023-03-20T01:56:56;6.23;80.67
76102;SHT30;64830;46.910;6.354;2023-03-20T01:59:36;6.20;80.61
76102;SHT30;64830;46.910;6.354;2023-03-20T02:02:04;6.25;80.61
76102;SHT30;64830;46.910;6.354;2023-03-20T02:04:37;6.24;80.63
76102;SHT30;64830;46.910;6.354;2023-03-20T02:07:06;6.23;80.69
76102;SHT30;64830;46.910;6.354;2023-03-20T02:09:32;6.23;80.53
76102;SHT30;64830;46.910;6.354;2023-03-20T02:11:58;6.25;80.49
76102;SHT30;64830;46.910;6.354;2023-03-20T02:14:24;6.24;80.52
76102;SHT30;64830;46.910;6.354;2023-03-20T02:16:51;6.25;80.56
76102;SHT30;64830;46.910;6.354;2023-03-20T02:19:27;6.24;80.81
76102;SHT30;64830;46.910;6.354;2023-03-20T02:22:21;6.24;80.84
76102;SHT30;64830;46.910;6.354;2023-03-20T02:27:44;6.25;80.96
76102;SHT30;64830;46.910;6.354;2023-03-20T02:38:50;6.41;80.86
76102;SHT30;64830;46.910;6.354;2023-03-20T02:46:53;6.38;80.71
76102;SHT30;64830;46.910;6.354;2023-03-20T02:52:14;6.40;80.72
76102;SHT30;64830;46.910;6.354;2023-03-20T02:55:23;6.40;80.82
76102;SHT30;64830;46.910;6.354;2023-03-20T02:57:54;6.42;80.74
76102;SHT30;64830;46.910;6.354;2023-03-20T03:00:37;6.44;80.81
76102;SHT30;64830;46.910;6.354;2023-03-20T03:03:07;6.42;80.79
76102;SHT30;64830;46.910;6.354;2023-03-20T03:06:00;6.44;80.74
76102;SHT30;64830;46.910;6.354;2023-03-20T03:08:31;6.41;80.45
76102;SHT30;64830;46.910;6.354;2023-03-20T03:11:02;6.38;80.34
76102;SHT30;64830;46.910;6.354;2023-03-20T03:13:30;6.38;80.28
76102;SHT30;64830;46.910;6.354;2023-03-20T03:16:09;6.35;80.28
76102;SHT30;64830;46.910;6.354;2023-03-20T03:18:36;6.31;80.30
76102;SHT30;64830;46.910;6.354;2023-03-20T03:21:04;6.31;80.30
76102;SHT30;64830;46.910;6.354;2023-03-20T03:23:34;6.30;80.73
76102;SHT30;64830;46.910;6.354;2023-03-20T03:26:03;6.31;80.50
76102;SHT30;64830;46.910;6.354;2023-03-20T03:28:35;6.33;80.56
76102;SHT30;64830;46.910;6.354;2023-03-20T03:31:10;6.35;80.52
76102;SHT30;64830;46.910;6.354;2023-03-20T03:33:38;6.30;80.31
76102;SHT30;64830;46.910;6.354;2023-03-20T03:38:59;6.24;80.71
76102;SHT30;64830;46.910;6.354;2023-03-20T03:41:43;6.28;80.98
76102;SHT30;64830;46.910;6.354;2023-03-20T03:47:10;6.27;80.65
76102;SHT30;64830;46.910;6.354;2023-03-20T03:49:41;6.30;80.72
76102;SHT30;64830;46.910;6.354;2023-03-20T03:52:11;6.31;80.97
76102;SHT30;64830;46.910;6.354;2023-03-20T03:54:51;6.37;81.01
76102;SHT30;64830;46.910;6.354;2023-03-20T03:57:24;6.35;81.27
76102;SHT30;64830;46.910;6.354;2023-03-20T03:59:51;6.34;81.32
76102;SHT30;64830;46.910;6.354;2023-03-20T04:02:19;6.33;81.51
76102;SHT30;64830;46.910;6.354;2023-03-20T04:04:48;6.31;81.65
76102;SHT30;64830;46.910;6.354;2023-03-20T04:07:14;6.34;81.75
76102;SHT30;64830;46.910;6.354;2023-03-20T04:09:40;6.38;81.74
76102;SHT30;64830;46.910;6.354;2023-03-20T04:12:07;6.38;81.52
76102;SHT30;64830;46.910;6.354;2023-03-20T04:14:42;6.45;81.63
76102;SHT30;64830;46.910;6.354;2023-03-20T04:17:08;6.46;81.58
76102;SHT30;64830;46.910;6.354;2023-03-20T04:19:33;6.48;81.54
76102;SHT30;64830;46.910;6.354;2023-03-20T04:21:58;6.48;81.37
76102;SHT30;64830;46.910;6.354;2023-03-20T04:24:24;6.46;81.33
76102;SHT30;64830;46.910;6.354;2023-03-20T04:26:50;6.44;81.46
76102;SHT30;64830;46.910;6.354;2023-03-20T04:29:16;6.42;81.63
76102;SHT30;64830;46.910;6.354;2023-03-20T04:31:42;6.44;81.82
76102;SHT30;64830;46.910;6.354;2023-03-20T04:34:07;6.41;81.75
76102;SHT30;64830;46.910;6.354;2023-03-20T04:36:32;6.41;81.82
76102;SHT30;64830;46.910;6.354;2023-03-20T04:38:58;6.41;81.94
76102;SHT30;64830;46.910;6.354;2023-03-20T04:41:23;6.40;81.88
76102;SHT30;64830;46.910;6.354;2023-03-20T04:43:48;6.41;81.90
76102;SHT30;64830;46.910;6.354;2023-03-20T04:46:14;6.41;81.86
76102;SHT30;64830;46.910;6.354;2023-03-20T04:48:39;6.41;81.89
76102;SHT30;64830;46.910;6.354;2023-03-20T04:51:05;6.42;81.81
76102;SHT30;64830;46.910;6.354;2023-03-20T04:53:31;6.44;81.66
76102;SHT30;64830;46.910;6.354;2023-03-20T04:55:56;6.45;81.71
76102;SHT30;64830;46.910;6.354;2023-03-20T04:58:21;6.46;81.72
76102;SHT30;64830;46.910;6.354;2023-03-20T05:00:47;6.51;81.48
76102;SHT30;64830;46.910;6.354;2023-03-20T05:03:13;6.46;81.49
76102;SHT30;64830;46.910;6.354;2023-03-20T05:05:38;6.41;81.61
76102;SHT30;64830;46.910;6.354;2023-03-20T05:08:04;6.40;82.05
76102;SHT30;64830;46.910;6.354;2023-03-20T05:10:30;6.40;81.89
76102;SHT30;64830;46.910;6.354;2023-03-20T05:12:56;6.35;82.24
76102;SHT30;64830;46.910;6.354;2023-03-20T05:15:21;6.34;81.98
76102;SHT30;64830;46.910;6.354;2023-03-20T05:17:46;6.28;82.15
76102;SHT30;64830;46.910;6.354;2023-03-20T05:20:12;6.27;82.03
76102;SHT30;64830;46.910;6.354;2023-03-20T05:22:38;6.27;81.99
76102;SHT30;64830;46.910;6.354;2023-03-20T05:25:03;6.27;82.17
76102;SHT30;64830;46.910;6.354;2023-03-20T05:27:29;6.30;82.01
76102;SHT30;64830;46.910;6.354;2023-03-20T05:29:54;6.34;81.75
76102;SHT30;64830;46.910;6.354;2023-03-20T05:32:20;6.38;81.55
76102;SHT30;64830;46.910;6.354;2023-03-20T05:34:45;6.38;81.69
76102;SHT30;64830;46.910;6.354;2023-03-20T05:37:11;6.37;81.44
76102;SHT30;64830;46.910;6.354;2023-03-20T05:39:36;6.42;81.48
76102;SHT30;64830;46.910;6.354;2023-03-20T05:42:02;6.44;81.33
76102;SHT30;64830;46.910;6.354;2023-03-20T05:44:27;6.41;81.29
76102;SHT30;64830;46.910;6.354;2023-03-20T05:46:53;6.40;81.06
76102;SHT30;64830;46.910;6.354;2023-03-20T05:49:18;6.38;81.32
76102;SHT30;64830;46.910;6.354;2023-03-20T05:51:43;6.41;81.27
76102;SHT30;64830;46.910;6.354;2023-03-20T05:54:09;6.44;81.29
76102;SHT30;64830;46.910;6.354;2023-03-20T05:56:35;6.38;81.20
76102;SHT30;64830;46.910;6.354;2023-03-20T05:59:00;6.37;81.10
76102;SHT30;64830;46.910;6.354;2023-03-20T06:01:26;6.35;81.14
76102;SHT30;64830;46.910;6.354;2023-03-20T06:03:52;6.37;80.90
76102;SHT30;64830;46.910;6.354;2023-03-20T06:06:17;6.38;80.87
76102;SHT30;64830;46.910;6.354;2023-03-20T06:08:43;6.38;80.70
76102;SHT30;64830;46.910;6.354;2023-03-20T06:11:08;6.44;80.80
76102;SHT30;64830;46.910;6.354;2023-03-20T06:13:34;6.46;80.87
76102;SHT30;64830;46.910;6.354;2023-03-20T06:16:00;6.51;80.85
76102;SHT30;64830;46.910;6.354;2023-03-20T06:18:25;6.53;80.41
76102;SHT30;64830;46.910;6.354;2023-03-20T06:20:52;6.59;80.17
76102;SHT30;64830;46.910;6.354;2023-03-20T06:23:18;6.65;80.61
76102;SHT30;64830;46.910;6.354;2023-03-20T06:25:43;6.69;80.56
76102;SHT30;64830;46.910;6.354;2023-03-20T06:28:09;6.71;81.01
76102;SHT30;64830;46.910;6.354;2023-03-20T06:30:35;6.76;80.64
76102;SHT30;64830;46.910;6.354;2023-03-20T06:33:00;6.76;80.83
76102;SHT30;64830;46.910;6.354;2023-03-20T06:35:26;6.78;80.40
76102;SHT30;64830;46.910;6.354;2023-03-20T06:37:55;6.75;80.23
76102;SHT30;64830;46.910;6.354;2023-03-20T06:40:21;6.72;79.95
76102;SHT30;64830;46.910;6.354;2023-03-20T06:42:46;6.69;79.88
76102;SHT30;64830;46.910;6.354;2023-03-20T06:45:12;6.65;79.89
76102;SHT30;64830;46.910;6.354;2023-03-20T06:47:37;6.62;79.68
76102;SHT30;64830;46.910;6.354;2023-03-20T06:50:03;6.59;79.68
76102;SHT30;64830;46.910;6.354;2023-03-20T06:52:28;6.59;79.41
76102;SHT30;64830;46.910;6.354;2023-03-20T06:54:54;6.55;79.39
76102;SHT30;64830;46.910;6.354;2023-03-20T06:57:20;6.52;79.30
76102;SHT30;64830;46.910;6.354;2023-03-20T06:59:46;6.48;79.32
76102;SHT30;64830;46.910;6.354;2023-03-20T07:02:12;6.51;79.64
76102;SHT30;64830;46.910;6.354;2023-03-20T07:04:37;6.52;79.62
76102;SHT30;64830;46.910;6.354;2023-03-20T07:07:03;6.53;79.63
76102;SHT30;64830;46.910;6.354;2023-03-20T07:09:28;6.56;79.32
76102;SHT30;64830;46.910;6.354;2023-03-20T07:11:53;6.56;79.44
76102;SHT30;64830;46.910;6.354;2023-03-20T07:14:19;6.58;79.22
76102;SHT30;64830;46.910;6.354;2023-03-20T07:16:45;6.53;79.85
76102;SHT30;64830;46.910;6.354;2023-03-20T07:19:10;6.62;80.15
76102;SHT30;64830;46.910;6.354;2023-03-20T07:21:37;6.73;79.95
76102;SHT30;64830;46.910;6.354;2023-03-20T07:24:03;6.92;79.98
76102;SHT30;64830;46.910;6.354;2023-03-20T07:26:28;6.96;79.47
76102;SHT30;64830;46.910;6.354;2023-03-20T07:28:55;6.92;79.40
76102;SHT30;64830;46.910;6.354;2023-03-20T07:31:24;6.97;79.65
76102;SHT30;64830;46.910;6.354;2023-03-20T07:33:49;7.04;79.73
76102;SHT30;64830;46.910;6.354;2023-03-20T07:36:15;7.08;79.48
76102;SHT30;64830;46.910;6.354;2023-03-20T07:38:41;7.04;79.54
76102;SHT30;64830;46.910;6.354;2023-03-20T07:41:06;7.08;78.90
76102;SHT30;64830;46.910;6.354;2023-03-20T07:43:32;7.03;78.68
76102;SHT30;64830;46.910;6.354;2023-03-20T07:45:57;6.99;78.90
76102;SHT30;64830;46.910;6.354;2023-03-20T07:48:23;7.00;78.65
76102;SHT30;64830;46.910;6.354;2023-03-20T07:50:48;6.95;78.99
76102;SHT30;64830;46.910;6.354;2023-03-20T07:53:13;6.90;78.94
76102;SHT30;64830;46.910;6.354;2023-03-20T07:55:39;6.87;79.44
76102;SHT30;64830;46.910;6.354;2023-03-20T07:58:04;6.87;79.34
76102;SHT30;64830;46.910;6.354;2023-03-20T08:00:32;6.89;79.50
76102;SHT30;64830;46.910;6.354;2023-03-20T08:02:57;6.90;79.24
76102;SHT30;64830;46.910;6.354;2023-03-20T08:05:23;7.06;79.42
76102;SHT30;64830;46.910;6.354;2023-03-20T08:07:48;7.27;79.23
76102;SHT30;64830;46.910;6.354;2023-03-20T08:10:15;7.55;79.13
76102;SHT30;64830;46.910;6.354;2023-03-20T08:12:40;7.83;78.33
76102;SHT30;64830;46.910;6.354;2023-03-20T08:15:06;8.10;77.59
76102;SHT30;64830;46.910;6.354;2023-03-20T08:17:32;8.30;76.82
76102;SHT30;64830;46.910;6.354;2023-03-20T08:19:57;8.46;76.93
76102;SHT30;64830;46.910;6.354;2023-03-20T08:22:23;8.60;75.70
76102;SHT30;64830;46.910;6.354;2023-03-20T08:24:48;8.66;75.19
76102;SHT30;64830;46.910;6.354;2023-03-20T08:27:13;8.65;74.98
76102;SHT30;64830;46.910;6.354;2023-03-20T08:29:39;8.56;75.25
76102;SHT30;64830;46.910;6.354;2023-03-20T08:32:04;8.52;75.48
76102;SHT30;64830;46.910;6.354;2023-03-20T08:34:30;8.49;75.32
76102;SHT30;64830;46.910;6.354;2023-03-20T08:36:57;8.42;75.28
76102;SHT30;64830;46.910;6.354;2023-03-20T08:39:23;8.42;74.91
76102;SHT30;64830;46.910;6.354;2023-03-20T08:41:48;8.42;75.22
76102;SHT30;64830;46.910;6.354;2023-03-20T08:44:13;8.50;74.78
76102;SHT30;64830;46.910;6.354;2023-03-20T08:46:39;8.58;74.59
76102;SHT30;64830;46.910;6.354;2023-03-20T08:49:05;8.72;74.21
76102;SHT30;64830;46.910;6.354;2023-03-20T08:51:31;8.77;73.95
76102;SHT30;64830;46.910;6.354;2023-03-20T08:53:57;8.93;73.46
76102;SHT30;64830;46.910;6.354;2023-03-20T08:56:22;9.20;73.79
76102;SHT30;64830;46.910;6.354;2023-03-20T08:58:48;9.46;72.72
76102;SHT30;64830;46.910;6.354;2023-03-20T09:01:13;9.59;71.55
76102;SHT30;64830;46.910;6.354;2023-03-20T09:03:40;9.60;71.64
76102;SHT30;64830;46.910;6.354;2023-03-20T09:06:07;9.57;71.24
76102;SHT30;64830;46.910;6.354;2023-03-20T09:08:33;9.49;70.28
76102;SHT30;64830;46.910;6.354;2023-03-20T09:10:59;9.40;70.89
76102;SHT30;64830;46.910;6.354;2023-03-20T09:13:24;9.36;71.23
76102;SHT30;64830;46.910;6.354;2023-03-20T09:15:51;9.36;71.77
76102;SHT30;64830;46.910;6.354;2023-03-20T09:18:19;9.36;71.57
76102;SHT30;64830;46.910;6.354;2023-03-20T09:20:45;9.34;71.67
76102;SHT30;64830;46.910;6.354;2023-03-20T09:23:11;9.34;71.62
76102;SHT30;64830;46.910;6.354;2023-03-20T09:25:36;9.35;72.07
76102;SHT30;64830;46.910;6.354;2023-03-20T09:28:02;9.38;72.47
76102;SHT30;64830;46.910;6.354;2023-03-20T09:30:27;9.42;71.78
76102;SHT30;64830;46.910;6.354;2023-03-20T09:32:53;9.42;71.30
76102;SHT30;64830;46.910;6.354;2023-03-20T09:35:18;9.39;71.63
76102;SHT30;64830;46.910;6.354;2023-03-20T09:37:44;9.39;70.35
76102;SHT30;64830;46.910;6.354;2023-03-20T09:43:17;9.28;70.32
76102;SHT30;64830;46.910;6.354;2023-03-20T09:53:55;9.32;70.65
76102;SHT30;64830;46.910;6.354;2023-03-20T09:56:26;9.46;70.45
76102;SHT30;64830;46.910;6.354;2023-03-20T09:59:02;9.56;69.15
76102;SHT30;64830;46.910;6.354;2023-03-20T10:01:52;9.73;68.97
76102;SHT30;64830;46.910;6.354;2023-03-20T10:04:18;9.82;70.02
76102;SHT30;64830;46.910;6.354;2023-03-20T10:06:44;9.93;69.54
76102;SHT30;64830;46.910;6.354;2023-03-20T10:09:29;10.12;68.34
76102;SHT30;64830;46.910;6.354;2023-03-20T10:18:17;10.63;67.37
76102;SHT30;64830;46.910;6.354;2023-03-20T10:21:01;10.72;67.49
76102;SHT30;64830;46.910;6.354;2023-03-20T10:23:35;10.72;64.46
76102;SHT30;64830;46.910;6.354;2023-03-20T10:26:10;10.60;66.75
76102;SHT30;64830;46.910;6.354;2023-03-20T10:28:41;10.56;67.10
76102;SHT30;64830;46.910;6.354;2023-03-20T10:31:37;10.55;66.68
76102;SHT30;64830;46.910;6.354;2023-03-20T10:34:23;10.56;66.34
76102;SHT30;64830;46.910;6.354;2023-03-20T10:42:20;10.89;67.45
76102;SHT30;64830;46.910;6.354;2023-03-20T10:45:24;11.08;66.35
76102;SHT30;64830;46.910;6.354;2023-03-20T10:47:55;11.21;64.84
76102;SHT30;64830;46.910;6.354;2023-03-20T10:50:32;11.24;64.61
76102;SHT30;64830;46.910;6.354;2023-03-20T10:53:01;11.04;61.88
76102;SHT30;64830;46.910;6.354;2023-03-20T10:55:31;10.77;64.24
76102;SHT30;64830;46.910;6.354;2023-03-20T11:00:34;10.69;65.10
76102;SHT30;64830;46.910;6.354;2023-03-20T11:02:59;10.79;65.41
76102;SHT30;64830;46.910;6.354;2023-03-20T11:05:34;10.79;63.58
76102;SHT30;64830;46.910;6.354;2023-03-20T11:08:04;10.76;64.53
76102;SHT30;64830;46.910;6.354;2023-03-20T11:10:32;10.80;63.09
76102;SHT30;64830;46.910;6.354;2023-03-20T11:16:23;10.81;63.93
76102;SHT30;64830;46.910;6.354;2023-03-20T11:18:51;10.77;64.41
76102;SHT30;64830;46.910;6.354;2023-03-20T11:21:28;10.83;62.90
76102;SHT30;64830;46.910;6.354;2023-03-20T11:23:55;10.81;64.06
76102;SHT30;64830;46.910;6.354;2023-03-20T11:26:37;10.84;64.00
76102;SHT30;64830;46.910;6.354;2023-03-20T11:29:05;10.83;64.32
76102;SHT30;64830;46.910;6.354;2023-03-20T11:36:29;10.62;62.90
76102;SHT30;64830;46.910;6.354;2023-03-20T11:39:05;10.50;62.93
76102;SHT30;64830;46.910;6.354;2023-03-20T11:41:32;10.50;64.23
76102;SHT30;64830;46.910;6.354;2023-03-20T11:43:58;10.53;64.15
76102;SHT30;64830;46.910;6.354;2023-03-20T11:46:24;10.52;64.13
76102;SHT30;64830;46.910;6.354;2023-03-20T11:49:22;10.52;64.23
76102;SHT30;64830;46.910;6.354;2023-03-20T11:52:11;10.59;63.55
76102;SHT30;64830;46.910;6.354;2023-03-20T11:54:46;10.66;64.33
76102;SHT30;64830;46.910;6.354;2023-03-20T11:57:31;10.76;63.37
76102;SHT30;64830;46.910;6.354;2023-03-20T12:02:31;11.12;62.44
76102;SHT30;64830;46.910;6.354;2023-03-20T12:04:59;11.34;62.59
76102;SHT30;64830;46.910;6.354;2023-03-20T12:07:29;11.55;61.03
76102;SHT30;64830;46.910;6.354;2023-03-20T12:10:10;11.80;62.69
76102;SHT30;64830;46.910;6.354;2023-03-20T12:13:03;12.00;62.03
76102;SHT30;64830;46.910;6.354;2023-03-20T12:15:33;12.10;59.13
76102;SHT30;64830;46.910;6.354;2023-03-20T12:20:40;12.05;59.53
76102;SHT30;64830;46.910;6.354;2023-03-20T12:31:41;11.97;59.35
76102;SHT30;64830;46.910;6.354;2023-03-20T12:34:16;12.07;59.59
76102;SHT30;64830;46.910;6.354;2023-03-20T12:36:46;12.21;59.51
76102;SHT30;64830;46.910;6.354;2023-03-20T12:39:21;12.36;59.59
76102;SHT30;64830;46.910;6.354;2023-03-20T13:00:46;12.80;59.06
76102;SHT30;64830;46.910;6.354;2023-03-20T13:06:41;13.07;56.67
76102;SHT30;64830;46.910;6.354;2023-03-20T13:14:26;12.93;56.71
76102;SHT30;64830;46.910;6.354;2023-03-20T13:26:09;12.88;57.86
76102;SHT30;64830;46.910;6.354;2023-03-20T13:28:55;12.81;57.96
76102;SHT30;64830;46.910;6.354;2023-03-20T13:31:29;12.77;57.76
76102;SHT30;64830;46.910;6.354;2023-03-20T13:34:17;12.73;57.80
76102;SHT30;64830;46.910;6.354;2023-03-20T13:39:19;12.59;58.26
76102;SHT30;64830;46.910;6.354;2023-03-20T13:41:48;12.53;58.27
76102;SHT30;64830;46.910;6.354;2023-03-20T13:44:17;12.50;57.83
76102;SHT30;64830;46.910;6.354;2023-03-20T13:46:49;12.50;57.91
76102;SHT30;64830;46.910;6.354;2023-03-20T13:49:24;12.50;58.25
76102;SHT30;64830;46.910;6.354;2023-03-20T13:52:02;12.50;57.75
76102;SHT30;64830;46.910;6.354;2023-03-20T14:05:42;12.70;58.67
76102;SHT30;64830;46.910;6.354;2023-03-20T14:08:28;12.75;58.34
76102;SHT30;64830;46.910;6.354;2023-03-20T14:13:54;12.84;58.97
76102;SHT30;64830;46.910;6.354;2023-03-20T14:16:20;12.83;58.65
76102;SHT30;64830;46.910;6.354;2023-03-20T14:19:03;12.81;58.07
76102;SHT30;64830;46.910;6.354;2023-03-20T14:21:30;12.72;58.43
76102;SHT30;64830;46.910;6.354;2023-03-20T14:24:13;12.67;59.06
76102;SHT30;64830;46.910;6.354;2023-03-20T14:26:40;12.69;59.24
76102;SHT30;64830;46.910;6.354;2023-03-20T14:31:37;12.79;58.94
76102;SHT30;64830;46.910;6.354;2023-03-20T14:37:00;12.86;58.48
76102;SHT30;64830;46.910;6.354;2023-03-20T14:39:46;12.86;58.27
76102;SHT30;64830;46.910;6.354;2023-03-20T14:42:48;12.88;58.54
76102;SHT30;64830;46.910;6.354;2023-03-20T14:45:31;12.98;58.23
76102;SHT30;64830;46.910;6.354;2023-03-20T14:53:25;13.03;58.17
76102;SHT30;64830;46.910;6.354;2023-03-20T15:01:22;12.96;58.25
76102;SHT30;64830;46.910;6.354;2023-03-20T15:04:06;13.03;58.01
76102;SHT30;64830;46.910;6.354;2023-03-20T15:06:34;13.05;58.07
76102;SHT30;64830;46.910;6.354;2023-03-20T15:09:06;13.11;57.78
76102;SHT30;64830;46.910;6.354;2023-03-20T15:11:33;13.16;57.99
76102;SHT30;64830;46.910;6.354;2023-03-20T15:14:00;13.19;57.59
76102;SHT30;64830;46.910;6.354;2023-03-20T15:16:29;13.16;57.44
76102;SHT30;64830;46.910;6.354;2023-03-20T15:18:55;13.15;57.83
76102;SHT30;64830;46.910;6.354;2023-03-20T15:21:31;13.08;57.50
76102;SHT30;64830;46.910;6.354;2023-03-20T15:23:57;13.08;57.80
76102;SHT30;64830;46.910;6.354;2023-03-20T15:26:23;13.11;57.70
76102;SHT30;64830;46.910;6.354;2023-03-20T15:28:55;13.11;57.75
76102;SHT30;64830;46.910;6.354;2023-03-20T15:31:29;13.07;57.30
76102;SHT30;64830;46.910;6.354;2023-03-20T15:33:58;13.04;57.80
76102;SHT30;64830;46.910;6.354;2023-03-20T15:36:26;13.05;57.35
76102;SHT30;64830;46.910;6.354;2023-03-20T15:39:02;13.05;58.01
76102;SHT30;64830;46.910;6.354;2023-03-20T15:41:30;13.11;57.60
76102;SHT30;64830;46.910;6.354;2023-03-20T15:44:25;13.10;57.47
76102;SHT30;64830;46.910;6.354;2023-03-20T15:49:19;13.18;57.06
76102;SHT30;64830;46.910;6.354;2023-03-20T15:51:46;13.18;57.61
76102;SHT30;64830;46.910;6.354;2023-03-20T15:54:13;13.16;57.40
76102;SHT30;64830;46.910;6.354;2023-03-20T15:56:45;13.19;57.79
76102;SHT30;64830;46.910;6.354;2023-03-20T15:59:14;13.21;57.31
76102;SHT30;64830;46.910;6.354;2023-03-20T16:01:42;13.21;57.91
76102;SHT30;64830;46.910;6.354;2023-03-20T16:04:12;13.29;57.58
76102;SHT30;64830;46.910;6.354;2023-03-20T16:06:53;13.43;57.17
76102;SHT30;64830;46.910;6.354;2023-03-20T16:09:20;14.70;56.04
76102;SHT30;64830;46.910;6.354;2023-03-20T16:11:48;18.24;54.04
76102;SHT30;64830;46.910;6.354;2023-03-20T16:14:26;21.46;47.19
76102;SHT30;64830;46.910;6.354;2023-03-20T16:16:55;23.56;45.66
76102;SHT30;64830;46.910;6.354;2023-03-20T16:19:21;24.59;42.76
76102;SHT30;64830;46.910;6.354;2023-03-20T16:21:54;25.42;41.22
76102;SHT30;64830;46.910;6.354;2023-03-20T16:24:28;25.81;38.57
76102;SHT30;64830;46.910;6.354;2023-03-20T16:26:56;26.08;36.89
76102;SHT30;64830;46.910;6.354;2023-03-20T16:29:24;26.62;35.96
76102;SHT30;64830;46.910;6.354;2023-03-20T16:32:03;26.80;35.94
76102;SHT30;64830;46.910;6.354;2023-03-20T16:34:33;26.41;35.51
76102;SHT30;64830;46.910;6.354;2023-03-20T16:37:05;26.43;33.14
76102;SHT30;64830;46.910;6.354;2023-03-20T16:39:31;26.26;34.69
76102;SHT30;64830;46.910;6.354;2023-03-20T16:42:21;25.81;34.56
76102;SHT30;64830;46.910;6.354;2023-03-20T16:44:52;24.93;34.03
76102;SHT30;64830;46.910;6.354;2023-03-20T16:47:23;24.49;34.33
76102;SHT30;64830;46.910;6.354;2023-03-20T16:52:39;24.40;35.48
76102;SHT30;64830;46.910;6.354;2023-03-20T16:55:13;23.85;35.40
76102;SHT30;64830;46.910;6.354;2023-03-20T16:57:40;23.76;36.47
76102;SHT30;64830;46.910;6.354;2023-03-20T17:00:30;24.30;36.52
76102;SHT30;64830;46.910;6.354;2023-03-20T17:03:06;24.53;33.64
76102;SHT30;64830;46.910;6.354;2023-03-20T17:05:49;23.91;35.68
76102;SHT30;64830;46.910;6.354;2023-03-20T17:08:21;23.46;36.00
76102;SHT30;64830;46.910;6.354;2023-03-20T17:10:50;23.07;37.15
76102;SHT30;64830;46.910;6.354;2023-03-20T17:13:17;22.84;35.96
76102;SHT30;64830;46.910;6.354;2023-03-20T17:15:43;22.24;36.88
76102;SHT30;64830;46.910;6.354;2023-03-20T17:18:12;21.00;38.37
76102;SHT30;64830;46.910;6.354;2023-03-20T17:20:37;19.52;40.11
76102;SHT30;64830;46.910;6.354;2023-03-20T17:23:09;18.26;42.05
76102;SHT30;64830;46.910;6.354;2023-03-20T17:25:36;17.33;44.55
76102;SHT30;64830;46.910;6.354;2023-03-20T17:28:01;16.42;45.93
76102;SHT30;64830;46.910;6.354;2023-03-20T17:30:27;15.67;46.77
76102;SHT30;64830;46.910;6.354;2023-03-20T17:32:52;15.05;48.08
76102;SHT30;64830;46.910;6.354;2023-03-20T17:35:18;14.59;49.56
76102;SHT30;64830;46.910;6.354;2023-03-20T17:37:44;14.14;50.53
76102;SHT30;64830;46.910;6.354;2023-03-20T17:40:17;13.77;51.27
76102;SHT30;64830;46.910;6.354;2023-03-20T17:42:43;13.49;52.74
76102;SHT30;64830;46.910;6.354;2023-03-20T17:45:12;13.21;53.01
76102;SHT30;64830;46.910;6.354;2023-03-20T17:47:40;12.96;54.00
76102;SHT30;64830;46.910;6.354;2023-03-20T17:50:08;12.73;53.61
76102;SHT30;64830;46.910;6.354;2023-03-20T17:52:34;12.50;54.47
76102;SHT30;64830;46.910;6.354;2023-03-20T17:54:59;12.36;55.02
76102;SHT30;64830;46.910;6.354;2023-03-20T17:57:33;12.17;55.78
76102;SHT30;64830;46.910;6.354;2023-03-20T17:59:59;12.01;55.86
76102;SHT30;64830;46.910;6.354;2023-03-20T18:02:25;11.90;56.25
76102;SHT30;64830;46.910;6.354;2023-03-20T18:04:51;11.80;56.86
76102;SHT30;64830;46.910;6.354;2023-03-20T18:07:17;11.66;57.13
76102;SHT30;64830;46.910;6.354;2023-03-20T18:09:44;11.59;57.63
76102;SHT30;64830;46.910;6.354;2023-03-20T18:12:12;11.46;57.83
76102;SHT30;64830;46.910;6.354;2023-03-20T18:14:37;11.32;58.28
76102;SHT30;64830;46.910;6.354;2023-03-20T18:17:03;11.21;58.33
76102;SHT30;64830;46.910;6.354;2023-03-20T18:19:29;11.08;58.74
76102;SHT30;64830;46.910;6.354;2023-03-20T18:21:55;11.03;58.99
76102;SHT30;64830;46.910;6.354;2023-03-20T18:24:21;10.94;59.98
76102;SHT30;64830;46.910;6.354;2023-03-20T18:26:48;10.85;59.53
76102;SHT30;64830;46.910;6.354;2023-03-20T18:29:14;10.80;60.10